sensor_id;sensor_type;location;lat;lon;timestamp;P1;durP1;ratioP1;P2;durP2;ratioP2
24644;SDS011;12780;45.502;9.146;2024-01-15T00:00:25;120.57;;;53.17;;
24644;SDS011;12780;45.502;9.146;2024-01-15T00:02:51;115.22;;;50.17;;
24644;SDS011;12780;45.502;9.146;2024-01-15T00:05:17;114.25;;;49.88;;
24644;SDS011;12780;45.502;9.146;2024-01-15T00:07:43;108.60;;;50.30;;
24644;SDS011;12780;45.502;9.146;2024-01-15T00:10:09;112.72;;;49.95;;
24644;SDS011;12780;45.502;9.146;2024-01-15T00:12:35;110.07;;;49.25;;
24644;SDS011;12780;45.502;9.146;2024-01-15T00:15:01;110.43;;;51.30;;
24644;SDS011;12780;45.502;9.146;2024-01-15T00:17:27;109.13;;;51.20;;
24644;SDS011;12780;45.502;9.146;2024-01-15T00:19:53;115.13;;;50.25;;
24644;SDS011;12780;45.502;9.146;2024-01-15T00:22:19;116.75;;;51.83;;
24644;SDS011;12780;45.502;9.146;2024-01-15T00:24:45;108.88;;;48.47;;
24644;SDS011;12780;45.502;9.146;2024-01-15T00:27:11;111.60;;;50.00;;
24644;SDS011;12780;45.502;9.146;2024-01-15T00:29:37;108.22;;;49.97;;
24644;SDS011;12780;45.502;9.146;2024-01-15T00:32:03;107.47;;;48.13;;
24644;SDS011;12780;45.502;9.146;2024-01-15T00:34:29;109.15;;;49.88;;
24644;SDS011;12780;45.502;9.146;2024-01-15T00:36:55;110.72;;;50.38;;
24644;SDS011;12780;45.502;9.146;2024-01-15T00:39:21;111.75;;;51.33;;
24644;SDS011;12780;45.502;9.146;2024-01-15T00:41:47;117.57;;;50.85;;
24644;SDS011;12780;45.502;9.146;2024-01-15T00:44:13;107.53;;;50.15;;
24644;SDS011;12780;45.502;9.146;2024-01-15T00:46:43;106.25;;;49.72;;
24644;SDS011;12780;45.502;9.146;2024-01-15T00:49:09;107.35;;;50.33;;
24644;SDS011;12780;45.502;9.146;2024-01-15T00:51:36;109.32;;;50.33;;
24644;SDS011;12780;45.502;9.146;2024-01-15T00:54:02;103.38;;;47.50;;
24644;SDS011;12780;45.502;9.146;2024-01-15T00:56:28;100.90;;;47.90;;
24644;SDS011;12780;45.502;9.146;2024-01-15T00:58:54;107.03;;;49.42;;
24644;SDS011;12780;45.502;9.146;2024-01-15T01:01:20;103.15;;;49.25;;
24644;SDS011;12780;45.502;9.146;2024-01-15T01:03:46;104.88;;;48.63;;
24644;SDS011;12780;45.502;9.146;2024-01-15T01:06:12;104.82;;;49.03;;
24644;SDS011;12780;45.502;9.146;2024-01-15T01:08:39;108.13;;;48.90;;
24644;SDS011;12780;45.502;9.146;2024-01-15T01:11:05;106.22;;;51.13;;
24644;SDS011;12780;45.502;9.146;2024-01-15T01:13:32;115.18;;;52.08;;
24644;SDS011;12780;45.502;9.146;2024-01-15T01:15:58;104.40;;;51.28;;
24644;SDS011;12780;45.502;9.146;2024-01-15T01:18:24;116.57;;;51.88;;
24644;SDS011;12780;45.502;9.146;2024-01-15T01:20:50;102.35;;;49.47;;
24644;SDS011;12780;45.502;9.146;2024-01-15T01:23:16;107.05;;;49.90;;
24644;SDS011;12780;45.502;9.146;2024-01-15T01:25:42;102.43;;;49.22;;
24644;SDS011;12780;45.502;9.146;2024-01-15T01:28:08;97.88;;;47.60;;
24644;SDS011;12780;45.502;9.146;2024-01-15T01:30:34;92.80;;;46.55;;
24644;SDS011;12780;45.502;9.146;2024-01-15T01:33:00;89.10;;;44.35;;
24644;SDS011;12780;45.502;9.146;2024-01-15T01:35:26;95.45;;;45.25;;
24644;SDS011;12780;45.502;9.146;2024-01-15T01:37:52;92.00;;;43.70;;
24644;SDS011;12780;45.502;9.146;2024-01-15T01:40:18;88.78;;;42.92;;
24644;SDS011;12780;45.502;9.146;2024-01-15T01:42:44;88.53;;;43.63;;
24644;SDS011;12780;45.502;9.146;2024-01-15T01:45:10;87.57;;;42.38;;
24644;SDS011;12780;45.502;9.146;2024-01-15T01:47:36;87.50;;;42.72;;
24644;SDS011;12780;45.502;9.146;2024-01-15T01:50:03;86.88;;;42.58;;
24644;SDS011;12780;45.502;9.146;2024-01-15T01:52:29;90.82;;;44.20;;
24644;SDS011;12780;45.502;9.146;2024-01-15T01:54:55;94.05;;;44.15;;
24644;SDS011;12780;45.502;9.146;2024-01-15T01:57:21;89.00;;;44.50;;
24644;SDS011;12780;45.502;9.146;2024-01-15T01:59:47;89.15;;;43.70;;
24644;SDS011;12780;45.502;9.146;2024-01-15T02:02:13;89.68;;;41.95;;
24644;SDS011;12780;45.502;9.146;2024-01-15T02:04:40;89.13;;;42.55;;
24644;SDS011;12780;45.502;9.146;2024-01-15T02:07:06;85.40;;;42.50;;
24644;SDS011;12780;45.502;9.146;2024-01-15T02:09:32;87.00;;;42.72;;
24644;SDS011;12780;45.502;9.146;2024-01-15T02:11:58;90.55;;;41.88;;
24644;SDS011;12780;45.502;9.146;2024-01-15T02:14:24;85.82;;;41.47;;
24644;SDS011;12780;45.502;9.146;2024-01-15T02:16:50;84.57;;;41.97;;
24644;SDS011;12780;45.502;9.146;2024-01-15T02:19:16;88.78;;;42.13;;
24644;SDS011;12780;45.502;9.146;2024-01-15T02:21:43;91.43;;;42.33;;
24644;SDS011;12780;45.502;9.146;2024-01-15T02:24:09;84.93;;;42.85;;
24644;SDS011;12780;45.502;9.146;2024-01-15T02:26:35;84.35;;;42.47;;
24644;SDS011;12780;45.502;9.146;2024-01-15T02:29:02;84.38;;;41.33;;
24644;SDS011;12780;45.502;9.146;2024-01-15T02:31:28;82.38;;;39.47;;
24644;SDS011;12780;45.502;9.146;2024-01-15T02:33:54;85.22;;;42.63;;
24644;SDS011;12780;45.502;9.146;2024-01-15T02:36:20;86.30;;;43.20;;
24644;SDS011;12780;45.502;9.146;2024-01-15T02:38:46;84.68;;;41.30;;
24644;SDS011;12780;45.502;9.146;2024-01-15T02:41:12;84.80;;;41.20;;
24644;SDS011;12780;45.502;9.146;2024-01-15T02:43:39;88.68;;;42.42;;
24644;SDS011;12780;45.502;9.146;2024-01-15T02:46:06;88.93;;;43.05;;
24644;SDS011;12780;45.502;9.146;2024-01-15T02:48:32;85.50;;;41.47;;
24644;SDS011;12780;45.502;9.146;2024-01-15T02:51:00;93.47;;;43.33;;
24644;SDS011;12780;45.502;9.146;2024-01-15T02:53:26;89.25;;;41.88;;
24644;SDS011;12780;45.502;9.146;2024-01-15T02:55:52;87.13;;;42.10;;
24644;SDS011;12780;45.502;9.146;2024-01-15T02:58:18;88.18;;;43.03;;
24644;SDS011;12780;45.502;9.146;2024-01-15T03:00:44;89.63;;;41.35;;
24644;SDS011;12780;45.502;9.146;2024-01-15T03:03:11;88.90;;;43.05;;
24644;SDS011;12780;45.502;9.146;2024-01-15T03:05:37;88.28;;;42.35;;
24644;SDS011;12780;45.502;9.146;2024-01-15T03:08:03;83.20;;;41.95;;
24644;SDS011;12780;45.502;9.146;2024-01-15T03:10:29;85.53;;;42.13;;
24644;SDS011;12780;45.502;9.146;2024-01-15T03:12:55;80.07;;;41.05;;
24644;SDS011;12780;45.502;9.146;2024-01-15T03:15:21;84.25;;;42.03;;
24644;SDS011;12780;45.502;9.146;2024-01-15T03:17:47;90.22;;;42.33;;
24644;SDS011;12780;45.502;9.146;2024-01-15T03:20:13;85.78;;;41.85;;
24644;SDS011;12780;45.502;9.146;2024-01-15T03:22:39;85.30;;;41.60;;
24644;SDS011;12780;45.502;9.146;2024-01-15T03:25:06;97.20;;;42.80;;
24644;SDS011;12780;45.502;9.146;2024-01-15T03:27:32;92.32;;;42.58;;
24644;SDS011;12780;45.502;9.146;2024-01-15T03:29:58;87.07;;;42.90;;
24644;SDS011;12780;45.502;9.146;2024-01-15T03:32:24;87.47;;;42.55;;
24644;SDS011;12780;45.502;9.146;2024-01-15T03:34:50;91.75;;;43.70;;
24644;SDS011;12780;45.502;9.146;2024-01-15T03:37:17;92.05;;;45.50;;
24644;SDS011;12780;45.502;9.146;2024-01-15T03:39:44;96.60;;;44.45;;
24644;SDS011;12780;45.502;9.146;2024-01-15T03:42:10;92.53;;;42.95;;
24644;SDS011;12780;45.502;9.146;2024-01-15T03:44:36;94.05;;;43.75;;
24644;SDS011;12780;45.502;9.146;2024-01-15T03:47:02;89.05;;;43.78;;
24644;SDS011;12780;45.502;9.146;2024-01-15T03:49:29;94.10;;;43.58;;
24644;SDS011;12780;45.502;9.146;2024-01-15T03:51:55;92.15;;;42.55;;
24644;SDS011;12780;45.502;9.146;2024-01-15T03:54:21;96.88;;;43.88;;
24644;SDS011;12780;45.502;9.146;2024-01-15T03:56:47;98.65;;;46.22;;
24644;SDS011;12780;45.502;9.146;2024-01-15T03:59:13;93.28;;;42.78;;
24644;SDS011;12780;45.502;9.146;2024-01-15T04:01:39;98.07;;;45.17;;
24644;SDS011;12780;45.502;9.146;2024-01-15T04:04:05;99.93;;;44.67;;
24644;SDS011;12780;45.502;9.146;2024-01-15T04:06:31;98.45;;;45.05;;
24644;SDS011;12780;45.502;9.146;2024-01-15T04:08:58;100.43;;;45.78;;
24644;SDS011;12780;45.502;9.146;2024-01-15T04:11:24;98.75;;;44.70;;
24644;SDS011;12780;45.502;9.146;2024-01-15T04:13:50;96.95;;;44.45;;
24644;SDS011;12780;45.502;9.146;2024-01-15T04:16:16;99.07;;;44.67;;
24644;SDS011;12780;45.502;9.146;2024-01-15T04:18:42;91.82;;;45.40;;
24644;SDS011;12780;45.502;9.146;2024-01-15T04:21:08;98.55;;;45.25;;
24644;SDS011;12780;45.502;9.146;2024-01-15T04:23:34;106.95;;;45.95;;
24644;SDS011;12780;45.502;9.146;2024-01-15T04:26:00;95.88;;;45.15;;
24644;SDS011;12780;45.502;9.146;2024-01-15T04:28:26;98.53;;;46.33;;
24644;SDS011;12780;45.502;9.146;2024-01-15T04:30:52;97.82;;;45.78;;
24644;SDS011;12780;45.502;9.146;2024-01-15T04:33:18;93.38;;;45.22;;
24644;SDS011;12780;45.502;9.146;2024-01-15T04:35:44;98.15;;;44.45;;
24644;SDS011;12780;45.502;9.146;2024-01-15T04:38:10;102.00;;;45.08;;
24644;SDS011;12780;45.502;9.146;2024-01-15T04:40:36;105.63;;;47.83;;
24644;SDS011;12780;45.502;9.146;2024-01-15T04:43:02;94.35;;;44.97;;
24644;SDS011;12780;45.502;9.146;2024-01-15T04:45:28;95.05;;;45.08;;
24644;SDS011;12780;45.502;9.146;2024-01-15T04:47:55;100.70;;;45.92;;
24644;SDS011;12780;45.502;9.146;2024-01-15T04:50:22;97.95;;;45.75;;
24644;SDS011;12780;45.502;9.146;2024-01-15T04:52:48;101.40;;;46.60;;
24644;SDS011;12780;45.502;9.146;2024-01-15T04:55:14;94.68;;;44.70;;
24644;SDS011;12780;45.502;9.146;2024-01-15T04:57:40;105.07;;;46.53;;
24644;SDS011;12780;45.502;9.146;2024-01-15T05:00:06;97.97;;;46.40;;
24644;SDS011;12780;45.502;9.146;2024-01-15T05:02:32;103.38;;;45.85;;
24644;SDS011;12780;45.502;9.146;2024-01-15T05:04:58;101.85;;;46.90;;
24644;SDS011;12780;45.502;9.146;2024-01-15T05:07:24;99.72;;;45.35;;
24644;SDS011;12780;45.502;9.146;2024-01-15T05:09:50;104.47;;;47.60;;
24644;SDS011;12780;45.502;9.146;2024-01-15T05:12:16;101.40;;;46.30;;
24644;SDS011;12780;45.502;9.146;2024-01-15T05:14:42;99.88;;;46.78;;
24644;SDS011;12780;45.502;9.146;2024-01-15T05:17:08;99.30;;;45.70;;
24644;SDS011;12780;45.502;9.146;2024-01-15T05:19:34;102.30;;;45.75;;
24644;SDS011;12780;45.502;9.146;2024-01-15T05:22:00;101.38;;;46.30;;
24644;SDS011;12780;45.502;9.146;2024-01-15T05:24:26;96.47;;;46.65;;
24644;SDS011;12780;45.502;9.146;2024-01-15T05:26:52;98.03;;;46.63;;
24644;SDS011;12780;45.502;9.146;2024-01-15T05:29:18;104.75;;;49.17;;
24644;SDS011;12780;45.502;9.146;2024-01-15T05:31:44;107.95;;;45.78;;
24644;SDS011;12780;45.502;9.146;2024-01-15T05:34:10;102.40;;;46.47;;
24644;SDS011;12780;45.502;9.146;2024-01-15T05:36:36;108.38;;;48.78;;
24644;SDS011;12780;45.502;9.146;2024-01-15T05:39:02;99.43;;;46.38;;
24644;SDS011;12780;45.502;9.146;2024-01-15T05:41:28;98.95;;;46.85;;
24644;SDS011;12780;45.502;9.146;2024-01-15T05:43:54;95.50;;;46.05;;
24644;SDS011;12780;45.502;9.146;2024-01-15T05:46:20;104.88;;;46.30;;
24644;SDS011;12780;45.502;9.146;2024-01-15T05:48:46;99.78;;;45.58;;
24644;SDS011;12780;45.502;9.146;2024-01-15T05:51:12;96.30;;;46.00;;
24644;SDS011;12780;45.502;9.146;2024-01-15T05:53:38;103.35;;;46.03;;
24644;SDS011;12780;45.502;9.146;2024-01-15T05:56:06;104.13;;;47.20;;
24644;SDS011;12780;45.502;9.146;2024-01-15T05:58:32;100.45;;;46.22;;
24644;SDS011;12780;45.502;9.146;2024-01-15T06:00:58;107.50;;;48.33;;
24644;SDS011;12780;45.502;9.146;2024-01-15T06:03:24;105.55;;;48.35;;
24644;SDS011;12780;45.502;9.146;2024-01-15T06:05:50;105.30;;;48.22;;
24644;SDS011;12780;45.502;9.146;2024-01-15T06:08:16;108.78;;;48.97;;
24644;SDS011;12780;45.502;9.146;2024-01-15T06:10:43;101.97;;;47.00;;
24644;SDS011;12780;45.502;9.146;2024-01-15T06:13:09;105.72;;;47.42;;
24644;SDS011;12780;45.502;9.146;2024-01-15T06:15:35;106.25;;;47.03;;
24644;SDS011;12780;45.502;9.146;2024-01-15T06:18:01;110.85;;;50.80;;
24644;SDS011;12780;45.502;9.146;2024-01-15T06:20:27;110.63;;;47.85;;
24644;SDS011;12780;45.502;9.146;2024-01-15T06:22:53;111.85;;;49.97;;
24644;SDS011;12780;45.502;9.146;2024-01-15T06:25:19;109.45;;;48.53;;
24644;SDS011;12780;45.502;9.146;2024-01-15T06:27:45;107.57;;;48.13;;
24644;SDS011;12780;45.502;9.146;2024-01-15T06:30:11;107.57;;;50.03;;
24644;SDS011;12780;45.502;9.146;2024-01-15T06:32:37;113.93;;;49.45;;
24644;SDS011;12780;45.502;9.146;2024-01-15T06:35:03;105.40;;;48.40;;
24644;SDS011;12780;45.502;9.146;2024-01-15T06:37:29;109.25;;;49.17;;
24644;SDS011;12780;45.502;9.146;2024-01-15T06:39:57;108.80;;;48.38;;
24644;SDS011;12780;45.502;9.146;2024-01-15T06:42:23;107.68;;;47.50;;
24644;SDS011;12780;45.502;9.146;2024-01-15T06:44:49;105.03;;;49.45;;
24644;SDS011;12780;45.502;9.146;2024-01-15T06:47:15;97.82;;;47.45;;
24644;SDS011;12780;45.502;9.146;2024-01-15T06:49:42;99.03;;;46.80;;
24644;SDS011;12780;45.502;9.146;2024-01-15T06:52:08;111.43;;;47.97;;
24644;SDS011;12780;45.502;9.146;2024-01-15T06:54:34;104.20;;;45.95;;
24644;SDS011;12780;45.502;9.146;2024-01-15T06:57:00;101.18;;;45.97;;
24644;SDS011;12780;45.502;9.146;2024-01-15T06:59:26;97.82;;;46.30;;
24644;SDS011;12780;45.502;9.146;2024-01-15T07:01:52;99.03;;;46.67;;
24644;SDS011;12780;45.502;9.146;2024-01-15T07:04:18;97.05;;;47.28;;
24644;SDS011;12780;45.502;9.146;2024-01-15T07:06:44;102.50;;;46.63;;
24644;SDS011;12780;45.502;9.146;2024-01-15T07:09:10;91.72;;;46.22;;
24644;SDS011;12780;45.502;9.146;2024-01-15T07:11:36;90.25;;;44.95;;
24644;SDS011;12780;45.502;9.146;2024-01-15T07:14:02;87.57;;;44.08;;
24644;SDS011;12780;45.502;9.146;2024-01-15T07:16:28;84.18;;;43.75;;
24644;SDS011;12780;45.502;9.146;2024-01-15T07:18:54;91.50;;;45.00;;
24644;SDS011;12780;45.502;9.146;2024-01-15T07:21:20;94.03;;;43.03;;
24644;SDS011;12780;45.502;9.146;2024-01-15T07:23:46;89.43;;;43.55;;
24644;SDS011;12780;45.502;9.146;2024-01-15T07:26:12;89.13;;;43.38;;
24644;SDS011;12780;45.502;9.146;2024-01-15T07:28:38;87.28;;;43.05;;
24644;SDS011;12780;45.502;9.146;2024-01-15T07:31:05;80.30;;;41.83;;
24644;SDS011;12780;45.502;9.146;2024-01-15T07:33:31;83.90;;;41.50;;
24644;SDS011;12780;45.502;9.146;2024-01-15T07:35:57;93.60;;;42.22;;
24644;SDS011;12780;45.502;9.146;2024-01-15T07:38:23;86.53;;;40.22;;
24644;SDS011;12780;45.502;9.146;2024-01-15T07:40:49;99.03;;;40.30;;
24644;SDS011;12780;45.502;9.146;2024-01-15T07:43:15;145.77;;;42.53;;
24644;SDS011;12780;45.502;9.146;2024-01-15T07:45:41;93.30;;;40.63;;
24644;SDS011;12780;45.502;9.146;2024-01-15T07:48:07;83.13;;;40.75;;
24644;SDS011;12780;45.502;9.146;2024-01-15T07:50:34;82.82;;;41.30;;
24644;SDS011;12780;45.502;9.146;2024-01-15T07:53:00;88.25;;;41.13;;
24644;SDS011;12780;45.502;9.146;2024-01-15T07:55:26;102.38;;;41.33;;
24644;SDS011;12780;45.502;9.146;2024-01-15T07:57:52;130.13;;;42.45;;
24644;SDS011;12780;45.502;9.146;2024-01-15T08:00:23;89.57;;;41.42;;
24644;SDS011;12780;45.502;9.146;2024-01-15T08:02:49;89.15;;;40.53;;
24644;SDS011;12780;45.502;9.146;2024-01-15T08:05:16;106.53;;;43.22;;
24644;SDS011;12780;45.502;9.146;2024-01-15T08:07:42;118.63;;;51.58;;
24644;SDS011;12780;45.502;9.146;2024-01-15T08:10:08;135.68;;;40.60;;
24644;SDS011;12780;45.502;9.146;2024-01-15T08:12:34;117.00;;;41.72;;
24644;SDS011;12780;45.502;9.146;2024-01-15T08:15:00;98.40;;;41.28;;
24644;SDS011;12780;45.502;9.146;2024-01-15T08:17:26;141.15;;;42.53;;
24644;SDS011;12780;45.502;9.146;2024-01-15T08:19:54;89.00;;;40.70;;
24644;SDS011;12780;45.502;9.146;2024-01-15T08:22:20;94.47;;;42.13;;
24644;SDS011;12780;45.502;9.146;2024-01-15T08:24:46;153.35;;;41.17;;
24644;SDS011;12780;45.502;9.146;2024-01-15T08:27:12;135.02;;;42.47;;
24644;SDS011;12780;45.502;9.146;2024-01-15T08:29:38;98.00;;;41.90;;
24644;SDS011;12780;45.502;9.146;2024-01-15T08:32:04;88.07;;;42.10;;
24644;SDS011;12780;45.502;9.146;2024-01-15T08:34:30;96.80;;;42.65;;
24644;SDS011;12780;45.502;9.146;2024-01-15T08:36:56;110.45;;;43.72;;
24644;SDS011;12780;45.502;9.146;2024-01-15T08:39:22;121.13;;;45.28;;
24644;SDS011;12780;45.502;9.146;2024-01-15T08:41:48;112.65;;;44.42;;
24644;SDS011;12780;45.502;9.146;2024-01-15T08:44:14;101.63;;;44.13;;
24644;SDS011;12780;45.502;9.146;2024-01-15T08:46:40;101.82;;;46.33;;
24644;SDS011;12780;45.502;9.146;2024-01-15T08:49:06;115.30;;;45.75;;
24644;SDS011;12780;45.502;9.146;2024-01-15T08:51:32;109.38;;;46.58;;
24644;SDS011;12780;45.502;9.146;2024-01-15T08:53:58;110.25;;;47.78;;
24644;SDS011;12780;45.502;9.146;2024-01-15T08:56:24;109.13;;;46.25;;
24644;SDS011;12780;45.502;9.146;2024-01-15T08:58:52;114.55;;;48.10;;
24644;SDS011;12780;45.502;9.146;2024-01-15T09:01:18;117.35;;;47.70;;
24644;SDS011;12780;45.502;9.146;2024-01-15T09:03:44;120.03;;;50.58;;
24644;SDS011;12780;45.502;9.146;2024-01-15T09:06:11;123.38;;;49.65;;
24644;SDS011;12780;45.502;9.146;2024-01-15T09:08:37;114.50;;;48.42;;
24644;SDS011;12780;45.502;9.146;2024-01-15T09:11:03;126.40;;;51.20;;
24644;SDS011;12780;45.502;9.146;2024-01-15T09:13:29;120.32;;;51.08;;
24644;SDS011;12780;45.502;9.146;2024-01-15T09:15:56;118.95;;;50.50;;
24644;SDS011;12780;45.502;9.146;2024-01-15T09:18:22;122.28;;;50.75;;
24644;SDS011;12780;45.502;9.146;2024-01-15T09:20:48;116.43;;;49.15;;
24644;SDS011;12780;45.502;9.146;2024-01-15T09:23:14;105.60;;;47.60;;
24644;SDS011;12780;45.502;9.146;2024-01-15T09:25:40;105.43;;;48.55;;
24644;SDS011;12780;45.502;9.146;2024-01-15T09:28:05;102.13;;;45.88;;
24644;SDS011;12780;45.502;9.146;2024-01-15T09:30:33;97.75;;;45.25;;
24644;SDS011;12780;45.502;9.146;2024-01-15T09:32:59;95.18;;;44.47;;
24644;SDS011;12780;45.502;9.146;2024-01-15T09:35:25;88.28;;;42.42;;
24644;SDS011;12780;45.502;9.146;2024-01-15T09:37:51;86.35;;;42.15;;
24644;SDS011;12780;45.502;9.146;2024-01-15T09:40:17;91.55;;;43.53;;
24644;SDS011;12780;45.502;9.146;2024-01-15T09:42:43;90.60;;;42.17;;
24644;SDS011;12780;45.502;9.146;2024-01-15T09:45:10;90.13;;;43.72;;
24644;SDS011;12780;45.502;9.146;2024-01-15T09:47:37;93.28;;;43.75;;
24644;SDS011;12780;45.502;9.146;2024-01-15T09:50:03;85.32;;;43.58;;
24644;SDS011;12780;45.502;9.146;2024-01-15T09:52:30;90.32;;;44.08;;
24644;SDS011;12780;45.502;9.146;2024-01-15T09:54:57;90.15;;;43.47;;
24644;SDS011;12780;45.502;9.146;2024-01-15T09:57:24;92.30;;;43.45;;
24644;SDS011;12780;45.502;9.146;2024-01-15T09:59:50;85.15;;;41.63;;
24644;SDS011;12780;45.502;9.146;2024-01-15T10:02:18;86.20;;;41.78;;
24644;SDS011;12780;45.502;9.146;2024-01-15T10:04:44;77.88;;;38.38;;
24644;SDS011;12780;45.502;9.146;2024-01-15T10:07:12;76.45;;;37.40;;
24644;SDS011;12780;45.502;9.146;2024-01-15T10:09:41;72.47;;;36.88;;
24644;SDS011;12780;45.502;9.146;2024-01-15T10:12:07;80.05;;;39.15;;
24644;SDS011;12780;45.502;9.146;2024-01-15T10:14:33;73.10;;;37.70;;
24644;SDS011;12780;45.502;9.146;2024-01-15T10:17:00;74.68;;;38.65;;
24644;SDS011;12780;45.502;9.146;2024-01-15T10:19:26;71.72;;;39.15;;
24644;SDS011;12780;45.502;9.146;2024-01-15T10:21:52;74.78;;;38.05;;
24644;SDS011;12780;45.502;9.146;2024-01-15T10:24:19;75.00;;;39.22;;
24644;SDS011;12780;45.502;9.146;2024-01-15T10:26:45;79.70;;;38.92;;
24644;SDS011;12780;45.502;9.146;2024-01-15T10:29:11;74.28;;;37.60;;
24644;SDS011;12780;45.502;9.146;2024-01-15T10:31:37;78.93;;;39.17;;
24644;SDS011;12780;45.502;9.146;2024-01-15T10:34:10;73.18;;;37.70;;
24644;SDS011;12780;45.502;9.146;2024-01-15T10:36:40;74.60;;;37.28;;
24644;SDS011;12780;45.502;9.146;2024-01-15T10:39:06;68.47;;;36.55;;
24644;SDS011;12780;45.502;9.146;2024-01-15T10:41:33;67.85;;;36.33;;
24644;SDS011;12780;45.502;9.146;2024-01-15T10:43:59;75.45;;;37.30;;
24644;SDS011;12780;45.502;9.146;2024-01-15T10:46:25;70.55;;;37.40;;
24644;SDS011;12780;45.502;9.146;2024-01-15T10:48:51;70.57;;;36.88;;
24644;SDS011;12780;45.502;9.146;2024-01-15T10:51:18;72.93;;;36.75;;
24644;SDS011;12780;45.502;9.146;2024-01-15T10:53:45;70.85;;;36.97;;
24644;SDS011;12780;45.502;9.146;2024-01-15T10:56:11;73.25;;;37.63;;
24644;SDS011;12780;45.502;9.146;2024-01-15T10:58:39;72.55;;;37.15;;
24644;SDS011;12780;45.502;9.146;2024-01-15T11:01:05;65.93;;;36.42;;
24644;SDS011;12780;45.502;9.146;2024-01-15T11:03:32;62.33;;;33.70;;
24644;SDS011;12780;45.502;9.146;2024-01-15T11:05:58;66.28;;;33.20;;
24644;SDS011;12780;45.502;9.146;2024-01-15T11:08:25;73.53;;;34.05;;
24644;SDS011;12780;45.502;9.146;2024-01-15T11:10:51;69.35;;;33.35;;
24644;SDS011;12780;45.502;9.146;2024-01-15T11:16:02;61.08;;;31.88;;
24644;SDS011;12780;45.502;9.146;2024-01-15T11:18:30;61.40;;;32.85;;
24644;SDS011;12780;45.502;9.146;2024-01-15T11:26:26;60.63;;;30.58;;
24644;SDS011;12780;45.502;9.146;2024-01-15T11:28:54;57.78;;;29.65;;
24644;SDS011;12780;45.502;9.146;2024-01-15T11:31:20;58.42;;;29.45;;
24644;SDS011;12780;45.502;9.146;2024-01-15T11:33:49;60.08;;;28.85;;
24644;SDS011;12780;45.502;9.146;2024-01-15T11:36:16;59.40;;;29.90;;
24644;SDS011;12780;45.502;9.146;2024-01-15T11:38:42;62.03;;;30.95;;
24644;SDS011;12780;45.502;9.146;2024-01-15T11:41:14;60.70;;;29.40;;
24644;SDS011;12780;45.502;9.146;2024-01-15T11:43:43;56.53;;;27.88;;
24644;SDS011;12780;45.502;9.146;2024-01-15T11:46:12;54.70;;;27.95;;
24644;SDS011;12780;45.502;9.146;2024-01-15T11:48:45;53.33;;;27.83;;
24644;SDS011;12780;45.502;9.146;2024-01-15T11:51:11;59.50;;;27.20;;
24644;SDS011;12780;45.502;9.146;2024-01-15T11:53:48;50.92;;;25.55;;
24644;SDS011;12780;45.502;9.146;2024-01-15T11:56:15;43.70;;;22.30;;
24644;SDS011;12780;45.502;9.146;2024-01-15T11:58:44;41.63;;;21.55;;
24644;SDS011;12780;45.502;9.146;2024-01-15T12:01:10;41.85;;;21.23;;
24644;SDS011;12780;45.502;9.146;2024-01-15T12:03:36;50.17;;;21.80;;
24644;SDS011;12780;45.502;9.146;2024-01-15T12:06:05;47.80;;;20.25;;
24644;SDS011;12780;45.502;9.146;2024-01-15T12:08:31;49.58;;;21.13;;
24644;SDS011;12780;45.502;9.146;2024-01-15T12:10:57;42.05;;;22.52;;
24644;SDS011;12780;45.502;9.146;2024-01-15T12:13:23;40.20;;;20.30;;
24644;SDS011;12780;45.502;9.146;2024-01-15T12:15:49;40.30;;;20.73;;
24644;SDS011;12780;45.502;9.146;2024-01-15T12:18:17;33.67;;;17.98;;
24644;SDS011;12780;45.502;9.146;2024-01-15T12:20:43;34.30;;;17.02;;
24644;SDS011;12780;45.502;9.146;2024-01-15T12:23:11;40.25;;;18.65;;
24644;SDS011;12780;45.502;9.146;2024-01-15T12:25:38;34.60;;;17.73;;
24644;SDS011;12780;45.502;9.146;2024-01-15T12:28:04;34.30;;;18.25;;
24644;SDS011;12780;45.502;9.146;2024-01-15T12:30:32;35.92;;;17.73;;
24644;SDS011;12780;45.502;9.146;2024-01-15T12:33:01;32.90;;;15.07;;
24644;SDS011;12780;45.502;9.146;2024-01-15T12:35:28;38.60;;;16.55;;
24644;SDS011;12780;45.502;9.146;2024-01-15T12:37:55;29.00;;;15.35;;
24644;SDS011;12780;45.502;9.146;2024-01-15T12:40:22;29.67;;;15.65;;
24644;SDS011;12780;45.502;9.146;2024-01-15T12:42:48;30.52;;;15.05;;
24644;SDS011;12780;45.502;9.146;2024-01-15T12:45:14;32.55;;;14.55;;
24644;SDS011;12780;45.502;9.146;2024-01-15T12:47:41;27.60;;;15.27;;
24644;SDS011;12780;45.502;9.146;2024-01-15T12:50:07;32.88;;;14.57;;
24644;SDS011;12780;45.502;9.146;2024-01-15T12:52:34;33.05;;;16.15;;
24644;SDS011;12780;45.502;9.146;2024-01-15T12:55:02;34.08;;;16.10;;
24644;SDS011;12780;45.502;9.146;2024-01-15T12:57:28;33.55;;;15.65;;
24644;SDS011;12780;45.502;9.146;2024-01-15T12:59:54;29.98;;;16.83;;
24644;SDS011;12780;45.502;9.146;2024-01-15T13:02:20;32.03;;;15.98;;
24644;SDS011;12780;45.502;9.146;2024-01-15T13:04:46;29.02;;;16.55;;
24644;SDS011;12780;45.502;9.146;2024-01-15T13:07:12;34.25;;;16.23;;
24644;SDS011;12780;45.502;9.146;2024-01-15T13:09:38;35.25;;;16.90;;
24644;SDS011;12780;45.502;9.146;2024-01-15T13:12:04;33.13;;;16.80;;
24644;SDS011;12780;45.502;9.146;2024-01-15T13:14:31;37.88;;;17.75;;
24644;SDS011;12780;45.502;9.146;2024-01-15T13:16:58;38.85;;;17.25;;
24644;SDS011;12780;45.502;9.146;2024-01-15T13:19:24;31.75;;;17.83;;
24644;SDS011;12780;45.502;9.146;2024-01-15T13:21:50;27.55;;;16.13;;
24644;SDS011;12780;45.502;9.146;2024-01-15T13:24:17;26.35;;;14.00;;
24644;SDS011;12780;45.502;9.146;2024-01-15T13:26:43;24.58;;;14.27;;
24644;SDS011;12780;45.502;9.146;2024-01-15T13:29:10;28.50;;;14.13;;
24644;SDS011;12780;45.502;9.146;2024-01-15T13:31:36;29.27;;;15.27;;
24644;SDS011;12780;45.502;9.146;2024-01-15T13:34:03;26.13;;;14.50;;
24644;SDS011;12780;45.502;9.146;2024-01-15T13:36:29;26.80;;;12.73;;
24644;SDS011;12780;45.502;9.146;2024-01-15T13:38:55;24.13;;;12.23;;
24644;SDS011;12780;45.502;9.146;2024-01-15T13:41:21;25.40;;;12.52;;
24644;SDS011;12780;45.502;9.146;2024-01-15T13:43:52;22.63;;;11.52;;
24644;SDS011;12780;45.502;9.146;2024-01-15T13:46:18;26.50;;;13.05;;
24644;SDS011;12780;45.502;9.146;2024-01-15T13:48:44;25.45;;;13.38;;
24644;SDS011;12780;45.502;9.146;2024-01-15T13:51:10;22.52;;;12.35;;
24644;SDS011;12780;45.502;9.146;2024-01-15T13:53:39;23.88;;;12.55;;
24644;SDS011;12780;45.502;9.146;2024-01-15T13:56:06;24.38;;;12.70;;
24644;SDS011;12780;45.502;9.146;2024-01-15T13:58:32;23.00;;;12.93;;
24644;SDS011;12780;45.502;9.146;2024-01-15T14:00:59;25.45;;;13.00;;
24644;SDS011;12780;45.502;9.146;2024-01-15T14:03:25;23.83;;;13.18;;
24644;SDS011;12780;45.502;9.146;2024-01-15T14:05:51;28.30;;;13.82;;
24644;SDS011;12780;45.502;9.146;2024-01-15T14:08:17;22.92;;;12.73;;
24644;SDS011;12780;45.502;9.146;2024-01-15T14:10:43;23.83;;;11.25;;
24644;SDS011;12780;45.502;9.146;2024-01-15T14:13:10;20.70;;;11.77;;
24644;SDS011;12780;45.502;9.146;2024-01-15T14:15:36;20.83;;;11.55;;
24644;SDS011;12780;45.502;9.146;2024-01-15T14:18:02;30.70;;;12.63;;
24644;SDS011;12780;45.502;9.146;2024-01-15T14:20:28;17.30;;;10.55;;